NCAR-RAP Real-Time Weather Data

Output produced by METARs form (12 August 2020  18:56 UTC)
found at http://weather.rap.ucar.edu/surface/
 
KPUB 121853Z VRB03KT 10SM CLR 28/14 A3007 RMK AO2 SLP108 T02830139
KPUB 121753Z VRB04KT 10SM CLR 27/15 A3011 RMK AO2 SLP124 T02670150 10267 20167 58020
KPUB 121653Z 15004KT 10SM SCT028 26/16 A3014 RMK AO2 SLP135 T02560161
KPUB 121642Z 00000KT 10SM BKN028 24/16 A3015 RMK AO2 T02440156
KPUB 121553Z VRB03KT 10SM BKN035 23/17 A3016 RMK AO2 SLP141 T02330167
KPUB 121524Z 21003KT 9SM SCT029 OVC035 21/17 A3017 RMK AO2 T02110167
KPUB 121453Z 22004KT 9SM OVC020 21/17 A3018 RMK AO2 SLP150 T02110167 51029
KPUB 121404Z 00000KT 9SM OVC015 21/17 A3017 RMK AO2 T02060167
KPUB 121353Z 13005KT 9SM OVC014 20/17 A3016 RMK AO2 SLP142 T02000167
KPUB 121325Z 10005KT 9SM BKN013 20/17 A3016 RMK AO2 T02000167
KPUB 121253Z 05005KT 9SM FEW013 17/15 A3014 RMK AO2 SLP132 T01720150
KPUB 121153Z 04004KT 10SM CLR 17/15 A3008 RMK AO2 SLP112 T01720150 10250 20172 51027
KPUB 121053Z AUTO 36003KT 10SM CLR 18/16 A3005 RMK AO2 SLP099 T01830156 TSNO
KPUB 120953Z AUTO VRB04KT 10SM CLR 21/16 A3002 RMK AO2 SLP087 T02060161 TSNO
KPUB 120853Z AUTO 01015KT 10SM CLR 22/16 A2999 RMK AO2 SLP073 T02170161 50013
KPUB 120753Z AUTO 35014KT 10SM CLR 23/16 A3000 RMK AO2 SLP075 T02280161
KPUB 120653Z AUTO 01013KT 10SM CLR 24/16 A2997 RMK AO2 SLP070 T02390156 403830156
KPUB 120553Z AUTO 03010KT 10SM CLR 25/13 A2995 RMK AO2 SLP063 T02500133 10367 20250 53015
KPUB 120453Z AUTO 34010KT 10SM CLR 26/09 A2993 RMK AO2 SLP059 T02560089
KPUB 120353Z AUTO 09004KT 10SM CLR 28/11 A2991 RMK AO2 PK WND 12030/0259 SLP053 T02830106
KPUB 120253Z 12015G20KT 10SM CLR 30/10 A2990 RMK AO2 SLP050 T03000100 53001
KPUB 120153Z 11005KT 10SM CLR 32/03 A2989 RMK AO2 SLP050 T03170033
KPUB 120053Z 11010KT 10SM CLR 36/M02 A2989 RMK AO2 SLP046 T03561017
KPUB 112353Z 16004KT 10SM CLR 37/M05 A2990 RMK AO2 SLP048 T03671050 10383 20306 56017